Nearby METAR Reports

 

KMQS - Coatesville, Pennsylvania, USA
Distance from station: ENE 6mi, 10km
Updated: Fri, 16-Nov-2018 2:35am EST
Light, Overcast
Light, Overcast
 Wind from ENE
Wind: ENE 8 mph , 13 km/h, Gust: 16 mph , 26 km/h
Temperature: 36°F , 2°C
Wind Chill: 30°F , -1°C
Dew Point: 36°F , 2°C
Humidity: 100%
Barometer: 29.51 inHg , 999.3 hPa
Summary: Light
Clouds: Overcast
Visibility: 3 miles , 5 km
Cloud details: Overcast 400 ft
2018/11/16 07:35 KMQS 160735Z AUTO 06007G14KT 3SM -UP OVC004 02/02 A2951 RMK AO2
KLNS - Lancaster, Pennsylvania, USA
Distance from station: NW 21mi, 33km
Updated: Fri, 16-Nov-2018 2:38am EST
Rain, Mist, Overcast
Rain, Mist, Overcast
 Wind from WNW
Wind: WNW 20 mph , 31 km/h
Temperature: 36°F , 2°C
Wind Chill: 25°F , -4°C
Dew Point: 34°F , 1°C
Humidity: 93%
Barometer: 29.65 inHg , 1004.1 hPa
Summary: Rain, Mist
Clouds: Overcast
Visibility: 3 miles , 5 km
Cloud details: Mostly cloudy 400 ft
Overcast 900 ft
2018/11/16 07:38 KLNS 160738Z AUTO 29017KT 3SM RA BR BKN004 OVC009 02/01 A2965 RMK AO2 CIG 004V008 PRESRR P0006 T00220006
 
KILG - Wilmington, Delaware, USA
Distance from station: SE 28mi, 45km
Updated: Fri, 16-Nov-2018 1:51am EST
Mist, Overcast
Mist, Overcast
 Wind from NE
Wind: NE 17 mph , 28 km/h
Temperature: 39°F , 4°C
Wind Chill: 30°F , -1°C
Dew Point: 39°F , 4°C
Humidity: 100%
Barometer: 29.52 inHg , 999.7 hPa
Summary: Mist
Clouds: Overcast
Visibility: 3 miles , 5 km
Cloud details: Mostly cloudy 600 ft
Overcast 1200 ft
2018/11/16 06:51 KILG 160651Z AUTO 04015KT 3SM BR BKN006 OVC012 04/04 A2952 RMK AO2 SLP997 T00440039 PWINO $
KRDG - Reading, Pennsylvania, USA
Distance from station: N 29mi, 47km
Updated: Fri, 16-Nov-2018 2:23am EST
Light rain, Overcast
Light rain, Overcast
 Wind from NNE
Wind: NNE 13 mph , 20 km/h
Temperature: 34°F , 1°C
Wind Chill: 25°F , -4°C
Dew Point: 34°F , 1°C
Humidity: 100%
Barometer: 29.57 inHg , 1001.4 hPa
Summary: Light rain
Clouds: Overcast
Visibility: 10 miles , 16 km
Cloud details: Few Clouds 800 ft
Overcast 1200 ft
2018/11/16 07:23 KRDG 160723Z AUTO 02011KT 10SM -RA FEW008 OVC012 01/01 A2957 RMK AO2 RAB22FZRAE22 P0000 I1000 T00060006 $
 
KPTW - Pottstown, Pennsylvania, USA
Distance from station: NE 30mi, 48km
Updated: Fri, 16-Nov-2018 1:54am EST
Mist, Overcast
Mist, Overcast
 Wind from NE
Wind: NE 12 mph , 19 km/h
Temperature: 34°F , 1°C
Wind Chill: 25°F , -4°C
Dew Point: 34°F , 1°C
Humidity: 100%
Barometer: 29.59 inHg , 1002 hPa
Summary: Mist
Clouds: Overcast
Visibility: 3 miles , 5 km
Cloud details: Overcast 700 ft
2018/11/16 06:54 KPTW 160654Z AUTO 05010KT 3SM BR OVC007 01/01 A2959 RMK AO2 RAB17E30 CIG 005V010 SLP020 P0000 T00110011 $